Time;durP1;ratioP1;P1;durP2;ratioP2;P2;SDS_P1;SDS_P2;PMS_P1;PMS_P2;Temp;Humidity;BMP_temperature;BMP_pressure;BME280_temperature;BME280_humidity;BME280_pressure;Samples;Min_cycle;Max_cycle;Signal;HPM_P1;HPM_P2
2021/01/17 05:02:24;;;;;;;20.23;13.05;;;-0.60;99.90;;;;;;5217369;23;20245;-68
2021/01/17 05:05:20;;;;;;;24.90;15.23;;;-0.60;99.90;;;;;;4938152;29;20354;-68
2021/01/17 05:07:51;;;;;;;21.25;14.30;;;-0.60;99.90;;;;;;4935690;28;20555;-67
2021/01/17 05:10:35;;;;;;;20.60;13.88;;;-0.60;99.90;;;;;;4936067;29;20232;-67
2021/01/17 05:13:09;;;;;;;26.52;14.98;;;-0.60;99.90;;;;;;4918376;29;20229;-67
2021/01/17 05:15:39;;;;;;;22.10;14.80;;;-0.50;99.90;;;;;;4918345;29;20207;-67
2021/01/17 05:18:06;;;;;;;23.02;14.25;;;-0.50;99.90;;;;;;4918901;29;20206;-67
2021/01/17 05:20:32;;;;;;;25.58;14.05;;;-0.50;99.90;;;;;;4918798;29;20233;-69
2021/01/17 05:22:59;;;;;;;24.38;15.15;;;-0.50;99.90;;;;;;4917856;29;20230;-69
2021/01/17 05:25:26;;;;;;;18.20;13.02;;;-0.50;99.90;;;;;;4917783;29;20203;-69
2021/01/17 05:27:53;;;;;;;26.25;14.65;;;-0.50;99.90;;;;;;4919087;29;20237;-69
2021/01/17 05:30:19;;;;;;;31.58;15.77;;;-0.50;99.90;;;;;;4918490;29;20516;-69
2021/01/17 05:32:50;;;;;;;25.02;14.60;;;-0.50;99.90;;;;;;4918084;29;20237;-69
2021/01/17 05:35:18;;;;;;;19.10;12.10;;;-0.50;99.90;;;;;;4916774;29;20597;-69
2021/01/17 05:37:48;;;;;;;23.25;13.77;;;-0.50;99.90;;;;;;4917782;29;20222;-69
2021/01/17 05:40:14;;;;;;;24.05;14.60;;;-0.40;99.90;;;;;;4917636;29;20207;-68
2021/01/17 05:42:42;;;;;;;23.17;15.30;;;-0.40;99.90;;;;;;4918278;29;20202;-68
2021/01/17 05:45:15;;;;;;;23.13;14.95;;;-0.40;99.90;;;;;;4918163;29;20207;-68
2021/01/17 05:47:42;;;;;;;29.13;16.25;;;-0.40;99.90;;;;;;4918276;29;20206;-68
2021/01/17 05:50:10;;;;;;;22.75;14.15;;;-0.40;99.90;;;;;;4917845;29;20222;-67
2021/01/17 05:52:38;;;;;;;26.77;14.00;;;-0.40;99.90;;;;;;4917289;29;20237;-68
2021/01/17 05:55:05;;;;;;;22.52;14.05;;;-0.40;99.90;;;;;;4918161;29;20285;-67
2021/01/17 05:57:33;;;;;;;33.90;16.85;;;-0.40;99.90;;;;;;4917936;29;20274;-68
2021/01/17 06:00:00;;;;;;;23.98;14.77;;;-0.40;99.90;;;;;;4917623;29;20250;-67
2021/01/17 06:02:27;;;;;;;23.15;15.02;;;-0.40;99.90;;;;;;4917315;29;20244;-68
2021/01/17 06:04:56;;;;;;;24.88;13.82;;;-0.40;99.90;;;;;;4917998;29;20225;-67
2021/01/17 06:07:23;;;;;;;21.80;13.45;;;-0.50;99.90;;;;;;4917614;29;20205;-67
2021/01/17 06:09:57;;;;;;;24.23;15.40;;;-0.50;99.90;;;;;;4917716;29;20225;-67
2021/01/17 06:12:30;;;;;;;24.40;14.25;;;-0.50;99.90;;;;;;4917434;29;20230;-67
2021/01/17 06:15:03;;;;;;;21.65;14.15;;;-0.50;99.90;;;;;;4917931;29;20220;-67
2021/01/17 06:17:32;;;;;;;23.75;13.65;;;-0.60;99.90;;;;;;4917710;29;20218;-67
2021/01/17 06:20:00;;;;;;;25.92;14.73;;;-0.60;99.90;;;;;;4918001;29;20210;-67
2021/01/17 06:22:29;;;;;;;29.50;16.90;;;-0.60;99.90;;;;;;4917179;29;20234;-67
2021/01/17 06:25:00;;;;;;;25.83;15.10;;;-0.50;99.90;;;;;;4917381;29;20230;-68
2021/01/17 06:27:27;;;;;;;25.27;15.13;;;-0.60;99.90;;;;;;4900787;29;20219;-68
2021/01/17 06:29:53;;;;;;;27.27;14.63;;;-0.60;99.90;;;;;;4917978;29;20527;-68
2021/01/17 06:32:21;;;;;;;28.55;13.90;;;-0.60;99.90;;;;;;4916972;29;20615;-67
2021/01/17 06:34:50;;;;;;;24.13;14.57;;;-0.60;99.90;;;;;;4917479;29;20206;-68
2021/01/17 06:37:18;;;;;;;24.17;13.13;;;-0.60;99.90;;;;;;4917336;29;20583;-68
2021/01/17 06:39:47;;;;;;;24.77;14.68;;;-0.60;99.90;;;;;;4917056;29;20203;-68
2021/01/17 06:42:16;;;;;;;25.42;14.07;;;-0.60;99.90;;;;;;4917120;29;20603;-68
2021/01/17 06:44:43;;;;;;;26.33;15.63;;;-0.60;99.90;;;;;;4917688;29;20297;-68
2021/01/17 06:47:21;;;;;;;21.42;13.82;;;-0.60;99.90;;;;;;4916627;29;20221;-67
2021/01/17 06:49:48;;;;;;;19.90;13.60;;;-0.60;99.90;;;;;;4917507;29;20221;-68
2021/01/17 06:52:16;;;;;;;23.70;14.70;;;-0.60;99.90;;;;;;4916278;29;20254;-68
2021/01/17 06:54:44;;;;;;;22.25;14.30;;;-0.60;99.90;;;;;;4916759;29;20297;-68
2021/01/17 06:57:11;;;;;;;23.42;14.90;;;-0.60;99.90;;;;;;4917587;29;20207;-69
2021/01/17 06:59:41;;;;;;;27.65;15.30;;;-0.60;99.90;;;;;;4916706;29;20294;-67
2021/01/17 07:02:41;;;;;;;25.83;15.30;;;-0.70;99.90;;;;;;4917071;29;20621;-68
2021/01/17 07:05:09;;;;;;;22.90;13.35;;;-0.70;99.90;;;;;;4911768;29;20221;-69
2021/01/17 07:07:55;;;;;;;21.42;14.05;;;-0.70;99.90;;;;;;4917227;29;20627;-68
2021/01/17 07:10:22;;;;;;;27.48;15.30;;;-0.70;99.90;;;;;;4916693;29;20632;-68
2021/01/17 07:12:57;;;;;;;24.27;14.30;;;-0.70;99.90;;;;;;4916450;29;20226;-69
2021/01/17 07:15:26;;;;;;;26.85;15.52;;;-0.70;99.90;;;;;;4916939;29;20206;-66
2021/01/17 07:18:00;;;;;;;20.30;14.10;;;-0.70;99.90;;;;;;4916916;29;20588;-67
2021/01/17 07:20:30;;;;;;;22.08;14.70;;;-0.70;99.90;;;;;;4916597;29;20232;-66
2021/01/17 07:22:57;;;;;;;18.52;13.20;;;-0.70;99.90;;;;;;4916050;29;20215;-67
2021/01/17 07:25:25;;;;;;;25.90;14.05;;;-0.70;99.90;;;;;;4916385;29;20206;-67
2021/01/17 07:28:07;;;;;;;24.75;15.18;;;-0.70;99.90;;;;;;4916333;29;20207;-67
2021/01/17 07:30:50;;;;;;;27.33;15.10;;;-0.70;99.90;;;;;;4916394;29;20358;-68
2021/01/17 07:33:22;;;;;;;24.13;14.80;;;-0.80;99.90;;;;;;4897463;29;20646;-67
2021/01/17 07:35:49;;;;;;;19.33;12.60;;;-0.80;99.90;;;;;;4912310;29;20217;-67
2021/01/17 07:38:18;;;;;;;29.33;14.93;;;-0.80;99.90;;;;;;4915696;29;20530;-69
2021/01/17 07:40:50;;;;;;;24.30;13.15;;;-0.90;99.90;;;;;;4915252;29;20222;-68
2021/01/17 07:43:17;;;;;;;23.40;14.18;;;-0.90;99.90;;;;;;4916255;29;20211;-68
2021/01/17 07:45:44;;;;;;;25.80;15.38;;;-0.90;99.90;;;;;;4916255;29;20210;-69
2021/01/17 07:48:12;;;;;;;23.42;14.75;;;-0.90;99.90;;;;;;4916397;29;20213;-69
2021/01/17 07:50:40;;;;;;;30.23;15.38;;;-0.90;99.90;;;;;;4915709;29;20762;-69
2021/01/17 07:53:14;;;;;;;28.90;15.32;;;-0.90;99.90;;;;;;4915318;29;20223;-69
2021/01/17 07:55:41;;;;;;;21.73;13.60;;;-1.00;99.90;;;;;;4916676;29;20261;-69
2021/01/17 07:58:10;;;;;;;21.00;15.02;;;-0.90;99.90;;;;;;4915354;29;20296;-69
2021/01/17 08:00:38;;;;;;;26.40;15.77;;;-0.90;99.90;;;;;;4915359;29;20227;-69
2021/01/17 08:03:05;;;;;;;24.05;14.23;;;-0.90;99.90;;;;;;4916002;29;20203;-68
2021/01/17 08:05:51;;;;;;;19.30;14.60;;;-0.90;99.90;;;;;;4916075;29;20226;-69
2021/01/17 08:08:46;;;;;;;25.27;14.95;;;-0.90;99.90;;;;;;4915484;29;20283;-69
2021/01/17 08:11:42;;;;;;;20.17;12.85;;;-0.90;99.90;;;;;;4906333;29;20226;-68
2021/01/17 08:14:27;;;;;;;16.92;12.30;;;-0.90;99.90;;;;;;4915987;29;20198;-68
2021/01/17 08:17:05;;;;;;;27.00;15.02;;;-0.90;99.90;;;;;;4916124;29;20377;-68
2021/01/17 08:19:40;;;;;;;16.23;8.60;;;-0.90;99.90;;;;;;4916121;29;20210;-68
2021/01/17 08:22:46;;;;;;;21.65;13.05;;;-0.90;99.90;;;;;;4914895;29;20230;-68
2021/01/17 08:25:36;;;;;;;13.35;8.15;;;-0.90;99.90;;;;;;4915512;29;20206;-67
2021/01/17 08:28:32;;;;;;;22.10;13.35;;;-0.90;99.90;;;;;;4896694;29;20215;-68
2021/01/17 08:30:58;;;;;;;17.90;10.80;;;-0.90;99.90;;;;;;4913145;29;20230;-68
2021/01/17 08:33:26;;;;;;;28.08;13.82;;;-0.90;99.90;;;;;;4907186;29;20703;-68
2021/01/17 08:35:54;;;;;;;19.80;12.90;;;-0.90;99.90;;;;;;4915579;29;20258;-68
2021/01/17 08:38:22;;;;;;;19.60;12.85;;;-0.90;99.90;;;;;;4915002;29;20210;-68
2021/01/17 08:40:53;;;;;;;28.73;15.57;;;-0.90;99.90;;;;;;4914644;29;20226;-67
2021/01/17 08:43:31;;;;;;;23.77;14.60;;;-0.90;99.90;;;;;;4913859;29;20203;-68
2021/01/17 08:45:57;;;;;;;32.20;15.90;;;-0.80;99.90;;;;;;4915113;29;20210;-68
2021/01/17 08:48:29;;;;;;;27.45;15.10;;;-0.80;99.90;;;;;;4915450;29;20285;-68
2021/01/17 08:50:58;;;;;;;20.45;13.10;;;-0.70;99.90;;;;;;4915006;29;20231;-68
2021/01/17 08:53:29;;;;;;;17.75;10.35;;;-0.70;99.90;;;;;;4914444;29;20274;-68
2021/01/17 08:55:58;;;;;;;24.42;14.38;;;-0.60;99.90;;;;;;4915005;29;20635;-69
2021/01/17 08:58:43;;;;;;;24.83;15.57;;;-0.60;99.90;;;;;;4915148;29;20306;-68
2021/01/17 09:01:10;;;;;;;18.42;11.80;;;-0.60;99.90;;;;;;4914759;29;20266;-69
2021/01/17 09:03:38;;;;;;;24.92;13.05;;;-0.50;99.90;;;;;;4914847;29;20210;-67
2021/01/17 09:06:21;;;;;;;23.50;11.32;;;-0.50;99.90;;;;;;4914826;29;20226;-68
2021/01/17 09:09:00;;;;;;;18.00;11.90;;;-0.50;99.90;;;;;;4915469;29;20214;-69
2021/01/17 09:11:36;;;;;;;26.15;13.38;;;-0.40;99.90;;;;;;4899501;29;20313;-69
2021/01/17 09:14:26;;;;;;;7.85;6.80;;;-0.40;99.90;;;;;;4906486;29;20273;-69
2021/01/17 09:16:54;;;;;;;19.77;13.07;;;-0.40;99.90;;;;;;4899962;29;20559;-68
2021/01/17 09:19:22;;;;;;;21.25;12.85;;;-0.30;99.90;;;;;;4916064;29;20586;-69
2021/01/17 09:21:51;;;;;;;17.67;10.48;;;-0.30;99.90;;;;;;4916914;29;20231;-68
2021/01/17 09:24:18;;;;;;;21.77;12.50;;;-0.20;99.90;;;;;;4918487;29;20215;-68
2021/01/17 09:26:46;;;;;;;15.38;9.32;;;-0.20;99.90;;;;;;4918036;29;20218;-69
2021/01/17 09:29:26;;;;;;;19.60;11.70;;;-0.10;99.90;;;;;;4918407;29;20206;-67
2021/01/17 09:31:54;;;;;;;17.90;12.55;;;-0.10;99.90;;;;;;4899124;29;20366;-69
2021/01/17 09:34:27;;;;;;;21.45;12.38;;;0.00;99.90;;;;;;4907934;29;20254;-69
2021/01/17 09:36:54;;;;;;;22.50;13.30;;;0.00;99.90;;;;;;4918069;29;20320;-69
2021/01/17 09:39:41;;;;;;;24.73;14.15;;;0.10;99.90;;;;;;4918167;29;20202;-69
2021/01/17 09:42:09;;;;;;;16.65;11.35;;;0.10;99.90;;;;;;4918157;29;20593;-69
2021/01/17 09:44:36;;;;;;;21.60;13.10;;;0.20;99.90;;;;;;4918089;29;20206;-69
2021/01/17 09:47:03;;;;;;;20.27;13.85;;;0.20;99.90;;;;;;4917934;29;20583;-69
2021/01/17 09:49:31;;;;;;;22.00;13.00;;;0.20;99.90;;;;;;4918071;29;20210;-68
2021/01/17 09:51:58;;;;;;;22.63;12.43;;;0.20;99.90;;;;;;4916750;29;20250;-67
2021/01/17 09:54:25;;;;;;;13.65;10.60;;;0.20;99.90;;;;;;4917954;29;20305;-69
2021/01/17 09:56:51;;;;;;;25.08;15.07;;;0.20;99.90;;;;;;4917504;29;20215;-69
2021/01/17 09:59:19;;;;;;;21.77;15.10;;;0.20;99.90;;;;;;4917471;29;20728;-69
2021/01/17 10:01:46;;;;;;;21.73;13.43;;;0.40;99.90;;;;;;4916600;29;20238;-69
2021/01/17 10:04:27;;;;;;;25.85;15.90;;;0.40;99.90;;;;;;4917714;29;20685;-70
2021/01/17 10:06:56;;;;;;;15.80;11.40;;;0.40;99.90;;;;;;4917235;29;20218;-70
2021/01/17 10:09:25;;;;;;;22.33;14.27;;;0.50;99.90;;;;;;4916405;29;20210;-69
2021/01/17 10:11:57;;;;;;;24.88;15.65;;;0.40;99.90;;;;;;4915919;29;20230;-67
2021/01/17 10:14:25;;;;;;;22.88;13.45;;;0.40;99.90;;;;;;4917396;29;20207;-68
2021/01/17 10:16:51;;;;;;;20.45;13.30;;;0.40;99.90;;;;;;4916577;29;20233;-68
2021/01/17 10:19:23;;;;;;;24.40;13.98;;;0.50;99.90;;;;;;4917341;29;20211;-69
2021/01/17 10:21:49;;;;;;;23.85;15.02;;;0.50;99.90;;;;;;4915175;29;20253;-68
2021/01/17 10:24:20;;;;;;;22.63;14.57;;;0.50;99.90;;;;;;4917575;29;20221;-67
2021/01/17 10:26:52;;;;;;;23.67;14.93;;;0.60;99.90;;;;;;4915011;29;20215;-67
2021/01/17 10:29:20;;;;;;;23.65;15.05;;;0.60;99.90;;;;;;4916306;29;20318;-69
2021/01/17 10:31:50;;;;;;;18.10;12.88;;;0.60;99.90;;;;;;4915550;29;20233;-69
2021/01/17 10:34:22;;;;;;;20.63;10.45;;;0.70;99.90;;;;;;4917040;29;20214;-68
2021/01/17 10:36:49;;;;;;;23.35;12.70;;;0.60;99.90;;;;;;4915869;29;20289;-67
2021/01/17 10:39:19;;;;;;;22.95;13.38;;;0.70;99.90;;;;;;4917124;29;20258;-67
2021/01/17 10:41:46;;;;;;;18.23;11.68;;;0.70;99.90;;;;;;4908919;29;20227;-66
2021/01/17 10:44:23;;;;;;;20.42;10.82;;;0.70;99.90;;;;;;4910172;29;20213;-68
2021/01/17 10:47:02;;;;;;;12.55;6.43;;;0.70;99.90;;;;;;4916933;29;20211;-68
2021/01/17 10:49:33;;;;;;;9.80;6.97;;;0.70;99.90;;;;;;4916715;29;20290;-68
2021/01/17 10:52:05;;;;;;;22.48;12.15;;;0.70;99.90;;;;;;4916037;29;20299;-69
2021/01/17 10:54:34;;;;;;;21.15;13.63;;;0.70;99.90;;;;;;4916342;29;20352;-68
2021/01/17 10:57:03;;;;;;;12.35;8.98;;;0.70;99.90;;;;;;4916763;29;20207;-69
2021/01/17 10:59:31;;;;;;;9.88;8.13;;;0.70;99.90;;;;;;4916039;29;20262;-69
2021/01/17 11:01:58;;;;;;;15.05;10.27;;;0.70;99.90;;;;;;4914271;29;20249;-67
2021/01/17 11:04:24;;;;;;;15.27;10.20;;;0.80;99.90;;;;;;4916413;29;20213;-69
2021/01/17 11:06:50;;;;;;;15.02;9.30;;;0.80;99.90;;;;;;4915929;29;20242;-69
2021/01/17 11:09:17;;;;;;;13.18;7.20;;;0.80;99.90;;;;;;4916108;29;20206;-68
2021/01/17 11:11:45;;;;;;;24.35;13.60;;;0.80;99.90;;;;;;4915011;29;20672;-68
2021/01/17 11:14:11;;;;;;;14.27;9.63;;;0.80;99.90;;;;;;4912643;29;20238;-67
2021/01/17 11:16:40;;;;;;;13.73;9.63;;;0.80;99.90;;;;;;4915861;29;20211;-67
2021/01/17 11:19:07;;;;;;;21.00;13.15;;;0.80;99.90;;;;;;4915983;29;20633;-67
2021/01/17 11:21:34;;;;;;;17.35;12.35;;;0.90;99.90;;;;;;4913830;29;20230;-67
2021/01/17 11:24:00;;;;;;;12.93;7.40;;;0.90;99.90;;;;;;4914243;29;20916;-67
2021/01/17 11:26:27;;;;;;;24.10;12.55;;;0.90;99.90;;;;;;4917050;29;20651;-67
2021/01/17 11:28:54;;;;;;;21.25;13.95;;;0.90;99.90;;;;;;4916385;29;20266;-67
2021/01/17 11:31:22;;;;;;;21.92;13.02;;;1.00;99.90;;;;;;4915960;29;20258;-68
2021/01/17 11:33:49;;;;;;;11.68;7.43;;;1.00;99.90;;;;;;4915354;29;20234;-69
2021/01/17 11:36:16;;;;;;;22.10;13.07;;;1.00;99.90;;;;;;4915799;29;20206;-68
2021/01/17 11:38:44;;;;;;;20.30;12.05;;;0.90;99.90;;;;;;4916370;29;20210;-68
2021/01/17 11:41:11;;;;;;;17.05;9.98;;;1.00;99.90;;;;;;4915320;29;20695;-68
2021/01/17 11:43:37;;;;;;;15.88;12.15;;;1.00;99.90;;;;;;4896628;29;20251;-67
2021/01/17 11:46:08;;;;;;;16.23;10.93;;;1.00;99.90;;;;;;4911972;29;20293;-67
2021/01/17 11:48:35;;;;;;;14.20;9.02;;;1.00;99.90;;;;;;4916203;29;20207;-67
2021/01/17 11:51:03;;;;;;;14.88;8.60;;;1.00;99.90;;;;;;4915803;29;20300;-67
2021/01/17 11:53:30;;;;;;;18.20;12.05;;;1.00;99.90;;;;;;4915598;29;20338;-68
2021/01/17 11:55:56;;;;;;;16.42;10.75;;;1.00;99.90;;;;;;4915771;29;20592;-67
2021/01/17 11:58:25;;;;;;;17.75;12.20;;;1.00;99.90;;;;;;4915200;29;20226;-68
2021/01/17 12:00:53;;;;;;;21.90;12.20;;;1.00;99.90;;;;;;4915463;29;20262;-71
2021/01/17 12:03:22;;;;;;;18.75;11.60;;;1.00;99.90;;;;;;4915081;29;20238;-68
2021/01/17 12:06:08;;;;;;;14.52;11.88;;;1.10;99.90;;;;;;4915723;29;20285;-68
2021/01/17 12:08:51;;;;;;;16.27;9.32;;;1.10;99.90;;;;;;4897601;29;20266;-68
2021/01/17 12:11:41;;;;;;;16.40;10.27;;;1.10;99.90;;;;;;4915314;29;20830;-68
2021/01/17 12:14:10;;;;;;;7.78;6.25;;;1.10;99.90;;;;;;4915509;29;20229;-68
2021/01/17 12:16:37;;;;;;;9.10;7.00;;;1.10;99.90;;;;;;4915810;29;20214;-68
2021/01/17 12:19:05;;;;;;;18.05;10.65;;;1.00;99.90;;;;;;4915673;29;20199;-68
2021/01/17 12:21:33;;;;;;;16.33;9.80;;;1.10;99.90;;;;;;4915168;29;20711;-68
2021/01/17 12:24:00;;;;;;;18.10;10.80;;;1.10;99.90;;;;;;4914923;29;20644;-68
2021/01/17 12:26:27;;;;;;;8.68;5.75;;;1.20;99.90;;;;;;4914457;29;20215;-68
2021/01/17 12:28:53;;;;;;;21.15;11.30;;;1.20;99.90;;;;;;4915299;29;20236;-68
2021/01/17 12:31:21;;;;;;;16.25;10.38;;;1.20;99.90;;;;;;4914697;29;20238;-68
2021/01/17 12:33:48;;;;;;;14.27;8.80;;;1.20;99.90;;;;;;4914543;29;20227;-68
2021/01/17 12:36:16;;;;;;;13.07;9.50;;;1.30;99.90;;;;;;4914890;29;20252;-68
2021/01/17 12:38:44;;;;;;;15.15;9.05;;;1.30;99.90;;;;;;4915379;29;20215;-69
2021/01/17 12:41:13;;;;;;;15.63;10.38;;;1.30;99.90;;;;;;4914877;29;20301;-68
2021/01/17 12:43:40;;;;;;;17.10;11.93;;;1.30;99.90;;;;;;4915194;29;20582;-68
2021/01/17 12:46:07;;;;;;;16.73;10.32;;;1.40;99.90;;;;;;4918722;29;20291;-68
2021/01/17 12:48:34;;;;;;;15.85;9.75;;;1.40;99.90;;;;;;4918573;29;20667;-67
2021/01/17 12:51:00;;;;;;;19.23;10.23;;;1.40;99.90;;;;;;4918664;29;20282;-67
2021/01/17 12:53:26;;;;;;;13.27;8.23;;;1.50;99.90;;;;;;4918093;29;20234;-67
2021/01/17 12:55:53;;;;;;;11.38;9.18;;;1.50;99.90;;;;;;4918881;29;20262;-67
2021/01/17 12:58:19;;;;;;;12.43;9.63;;;1.50;99.90;;;;;;4918984;29;20207;-68
2021/01/17 13:00:45;;;;;;;9.73;8.10;;;1.60;99.90;;;;;;4918505;29;20242;-67
2021/01/17 13:03:12;;;;;;;8.88;6.35;;;1.60;99.90;;;;;;4918135;29;20198;-68
2021/01/17 13:05:38;;;;;;;13.43;9.68;;;1.50;99.90;;;;;;4919010;29;20222;-68
2021/01/17 13:08:05;;;;;;;15.48;10.55;;;1.50;99.90;;;;;;4917830;29;20215;-67
2021/01/17 13:10:31;;;;;;;18.38;10.07;;;1.50;99.90;;;;;;4918604;29;20351;-68
2021/01/17 13:12:59;;;;;;;17.48;10.50;;;1.50;99.90;;;;;;4918239;29;20239;-67
2021/01/17 13:15:27;;;;;;;14.68;8.65;;;1.60;99.90;;;;;;4918698;29;20237;-67
2021/01/17 13:17:54;;;;;;;13.48;9.23;;;1.60;99.90;;;;;;4918560;29;20357;-67
2021/01/17 13:20:20;;;;;;;14.57;11.27;;;1.60;99.90;;;;;;4917807;29;20582;-68
2021/01/17 13:22:46;;;;;;;20.95;10.90;;;1.60;99.90;;;;;;4918456;29;20214;-68
2021/01/17 13:25:14;;;;;;;13.73;8.65;;;1.60;99.90;;;;;;4918145;29;20578;-67
2021/01/17 13:27:41;;;;;;;14.98;9.10;;;1.60;99.90;;;;;;4918428;29;20574;-68
2021/01/17 13:30:09;;;;;;;14.90;9.45;;;1.60;99.90;;;;;;4918437;29;20327;-67
2021/01/17 13:32:36;;;;;;;15.57;9.23;;;1.50;99.90;;;;;;4918519;29;20287;-68
2021/01/17 13:35:03;;;;;;;14.57;9.30;;;1.50;99.90;;;;;;4918379;29;20222;-68
2021/01/17 13:37:29;;;;;;;15.25;9.18;;;1.50;99.90;;;;;;4918411;29;20214;-68
2021/01/17 13:39:55;;;;;;;5.72;5.22;;;1.40;99.90;;;;;;4917987;29;20226;-67
2021/01/17 13:42:22;;;;;;;13.93;8.43;;;1.40;99.90;;;;;;4918280;29;20230;-67
2021/01/17 13:44:49;;;;;;;14.05;10.07;;;1.40;99.90;;;;;;4918258;29;20210;-67
2021/01/17 13:47:19;;;;;;;10.32;9.18;;;1.40;99.90;;;;;;4918378;29;20681;-67
2021/01/17 13:49:45;;;;;;;11.43;8.30;;;1.40;99.90;;;;;;4918424;29;20672;-68
2021/01/17 13:52:11;;;;;;;10.73;9.23;;;1.30;99.90;;;;;;4917522;29;20241;-68
2021/01/17 13:54:37;;;;;;;16.17;10.38;;;1.40;99.90;;;;;;4918228;29;20218;-67
2021/01/17 13:57:04;;;;;;;14.70;9.20;;;1.30;99.90;;;;;;4917494;29;20203;-67
2021/01/17 13:59:30;;;;;;;16.70;9.52;;;1.30;99.90;;;;;;4918717;29;20210;-67
2021/01/17 14:01:56;;;;;;;16.98;10.98;;;1.30;99.90;;;;;;4917383;29;20257;-68
2021/01/17 14:04:23;;;;;;;10.40;7.20;;;1.30;99.90;;;;;;4917251;29;20269;-68
2021/01/17 14:06:49;;;;;;;11.88;7.97;;;1.40;99.90;;;;;;4916789;29;20517;-67
2021/01/17 14:09:16;;;;;;;9.73;7.85;;;1.30;99.90;;;;;;4917396;29;20571;-68
2021/01/17 14:11:43;;;;;;;19.95;10.02;;;1.30;99.90;;;;;;4914977;29;20234;-67
2021/01/17 14:14:09;;;;;;;12.88;8.27;;;1.30;99.90;;;;;;4917088;29;20277;-67
2021/01/17 14:16:40;;;;;;;10.20;6.65;;;1.30;99.90;;;;;;4917313;29;20545;-67
2021/01/17 14:19:06;;;;;;;14.35;8.23;;;1.20;99.90;;;;;;4917827;29;20246;-67
2021/01/17 14:21:44;;;;;;;13.98;9.57;;;1.20;99.90;;;;;;4916660;29;20667;-68
2021/01/17 14:24:11;;;;;;;12.27;8.88;;;1.20;99.90;;;;;;4916530;29;20194;-67
2021/01/17 14:26:37;;;;;;;16.30;9.52;;;1.10;99.90;;;;;;4916403;29;20492;-68
2021/01/17 14:29:05;;;;;;;17.95;10.15;;;1.10;99.90;;;;;;4916906;29;20211;-68
2021/01/17 14:31:32;;;;;;;14.13;10.00;;;1.10;99.90;;;;;;4916445;29;20250;-68
2021/01/17 14:33:59;;;;;;;12.32;8.70;;;1.10;99.90;;;;;;4916340;29;20699;-68
2021/01/17 14:36:30;;;;;;;12.88;8.50;;;1.00;99.90;;;;;;4916375;29;20218;-69
2021/01/17 14:38:58;;;;;;;5.90;5.07;;;1.00;99.90;;;;;;4916965;29;20226;-69
2021/01/17 14:41:24;;;;;;;14.95;9.00;;;1.00;99.90;;;;;;4912889;29;20632;-67
2021/01/17 14:43:50;;;;;;;15.00;9.85;;;1.00;99.90;;;;;;4891710;29;20219;-68
2021/01/17 14:46:16;;;;;;;14.02;10.00;;;1.00;99.90;;;;;;4913834;29;20230;-68
2021/01/17 14:48:42;;;;;;;20.90;10.75;;;1.00;99.90;;;;;;4913241;29;20739;-67
2021/01/17 14:51:08;;;;;;;14.98;9.15;;;1.00;99.90;;;;;;4913851;29;20576;-68
2021/01/17 14:53:35;;;;;;;14.23;9.10;;;1.00;99.90;;;;;;4912413;29;20222;-67
2021/01/17 14:56:02;;;;;;;12.98;8.90;;;1.00;99.90;;;;;;4913105;29;20215;-68
2021/01/17 14:58:28;;;;;;;13.90;9.43;;;1.00;99.90;;;;;;4913440;29;20270;-68
2021/01/17 15:00:54;;;;;;;16.58;9.40;;;1.00;99.90;;;;;;4913417;29;20604;-68
2021/01/17 15:03:20;;;;;;;15.75;10.90;;;1.00;99.90;;;;;;4913023;29;20226;-69
2021/01/17 15:05:46;;;;;;;9.82;6.90;;;1.00;99.90;;;;;;4907822;29;20523;-67
2021/01/17 15:08:12;;;;;;;11.75;6.30;;;1.00;99.90;;;;;;4910910;29;20199;-68
2021/01/17 15:10:38;;;;;;;16.13;9.68;;;0.90;99.90;;;;;;4912742;29;20230;-67
2021/01/17 15:13:06;;;;;;;18.20;9.95;;;0.90;99.90;;;;;;4906202;29;20234;-68
2021/01/17 15:15:33;;;;;;;12.90;8.70;;;0.90;99.90;;;;;;4912181;29;20229;-68
2021/01/17 15:17:59;;;;;;;13.57;8.30;;;0.80;99.90;;;;;;4912925;29;20210;-67
2021/01/17 15:20:25;;;;;;;17.88;11.50;;;0.80;99.90;;;;;;4913348;29;20285;-68
2021/01/17 15:22:51;;;;;;;10.55;8.18;;;0.80;99.90;;;;;;4912609;29;20588;-68
2021/01/17 15:25:17;;;;;;;18.15;11.60;;;0.70;99.90;;;;;;4919471;29;20206;-67
2021/01/17 15:27:43;;;;;;;16.52;13.13;;;0.70;99.90;;;;;;4912759;29;20679;-68
2021/01/17 15:30:11;;;;;;;14.30;10.52;;;0.70;99.90;;;;;;4912461;29;20210;-67
2021/01/17 15:32:37;;;;;;;19.42;11.40;;;0.70;99.90;;;;;;4912298;29;20215;-67
2021/01/17 15:35:05;;;;;;;19.38;11.25;;;0.60;99.90;;;;;;4911660;29;20222;-68
2021/01/17 15:37:31;;;;;;;21.73;11.35;;;0.60;99.90;;;;;;4907649;29;20225;-67
2021/01/17 15:39:57;;;;;;;17.00;11.00;;;0.60;99.90;;;;;;4905616;29;20234;-67
2021/01/17 15:42:23;;;;;;;15.40;9.85;;;0.60;99.90;;;;;;4913561;29;20575;-67
2021/01/17 15:44:49;;;;;;;18.45;11.73;;;0.60;99.90;;;;;;4915350;29;20206;-67
2021/01/17 15:47:16;;;;;;;19.95;11.50;;;0.60;99.90;;;;;;4914695;29;20206;-67
2021/01/17 15:49:44;;;;;;;8.35;6.82;;;0.60;99.90;;;;;;4914928;29;20206;-67
2021/01/17 15:52:12;;;;;;;15.85;9.85;;;0.60;99.90;;;;;;4913823;29;20222;-67
2021/01/17 15:54:38;;;;;;;18.73;11.68;;;0.60;99.90;;;;;;4914990;29;20658;-67
2021/01/17 15:57:04;;;;;;;13.55;7.40;;;0.60;99.90;;;;;;4908971;29;20226;-68
2021/01/17 15:59:30;;;;;;;12.10;8.20;;;0.60;99.90;;;;;;4912751;29;20609;-67
2021/01/17 16:01:57;;;;;;;16.67;9.98;;;0.60;99.90;;;;;;4911571;29;20242;-67
2021/01/17 16:04:24;;;;;;;20.52;11.88;;;0.60;99.90;;;;;;4912844;29;20199;-68
2021/01/17 16:06:50;;;;;;;21.95;11.73;;;0.60;99.90;;;;;;4912225;29;20856;-68
2021/01/17 16:09:16;;;;;;;17.00;11.65;;;0.60;99.90;;;;;;4912326;29;20207;-68
2021/01/17 16:11:42;;;;;;;14.40;9.35;;;0.60;99.90;;;;;;4911609;29;20234;-68
2021/01/17 16:14:08;;;;;;;15.70;9.43;;;0.60;99.90;;;;;;4909054;29;20329;-68
2021/01/17 16:16:36;;;;;;;15.95;10.57;;;0.60;99.90;;;;;;4912275;29;20211;-68
2021/01/17 16:19:03;;;;;;;19.35;11.30;;;0.60;99.90;;;;;;4908520;29;20222;-67
2021/01/17 16:21:30;;;;;;;18.27;10.95;;;0.60;99.90;;;;;;4911726;29;20233;-69
2021/01/17 16:23:56;;;;;;;17.13;11.38;;;0.60;99.90;;;;;;4904074;29;20211;-69
2021/01/17 16:26:22;;;;;;;17.25;10.15;;;0.60;99.90;;;;;;4909406;29;20226;-68
2021/01/17 16:28:48;;;;;;;11.38;8.70;;;0.70;99.90;;;;;;4894233;29;20747;-68
2021/01/17 16:31:14;;;;;;;14.32;9.70;;;0.60;99.90;;;;;;4902493;29;20722;-68
2021/01/17 16:33:40;;;;;;;21.65;11.75;;;0.70;99.90;;;;;;4892671;29;20282;-68
2021/01/17 16:36:07;;;;;;;7.93;6.63;;;0.70;99.90;;;;;;4898490;29;20623;-68
2021/01/17 16:38:34;;;;;;;16.23;9.95;;;0.70;99.90;;;;;;4909049;29;20207;-68
2021/01/17 16:41:00;;;;;;;16.83;10.15;;;0.70;99.90;;;;;;4911857;29;20252;-69
2021/01/17 16:43:26;;;;;;;15.80;9.32;;;0.60;99.90;;;;;;4911014;29;20203;-68
2021/01/17 16:45:52;;;;;;;16.27;9.65;;;0.60;99.90;;;;;;4910931;29;20210;-68
2021/01/17 16:48:18;;;;;;;18.58;10.48;;;0.60;99.90;;;;;;4903860;29;20273;-68
2021/01/17 16:50:44;;;;;;;16.23;10.60;;;0.70;99.90;;;;;;4906667;29;20230;-68
2021/01/17 16:53:10;;;;;;;23.48;11.35;;;0.70;99.90;;;;;;4907457;29;20703;-67
2021/01/17 16:55:37;;;;;;;11.20;8.70;;;0.70;99.90;;;;;;4914174;29;20207;-68
2021/01/17 16:58:03;;;;;;;19.77;10.15;;;0.70;99.90;;;;;;4914024;29;20218;-68
2021/01/17 17:00:30;;;;;;;11.85;8.45;;;0.70;99.90;;;;;;4914207;29;20738;-68
2021/01/17 17:02:57;;;;;;;9.35;6.53;;;0.70;99.90;;;;;;4912657;29;20632;-68
2021/01/17 17:05:23;;;;;;;11.75;6.57;;;0.70;99.90;;;;;;4912143;29;20219;-68
2021/01/17 17:07:49;;;;;;;10.13;7.15;;;0.70;99.90;;;;;;4910155;29;20217;-68
2021/01/17 17:10:15;;;;;;;16.08;10.45;;;0.60;99.90;;;;;;4913892;29;20221;-67
2021/01/17 17:12:43;;;;;;;12.93;8.55;;;0.60;99.90;;;;;;4912379;29;20412;-68
2021/01/17 17:15:10;;;;;;;19.63;11.40;;;0.60;99.90;;;;;;4914041;29;20218;-69
2021/01/17 17:17:36;;;;;;;21.35;9.82;;;0.60;99.90;;;;;;4913599;29;20225;-69
2021/01/17 17:20:03;;;;;;;14.50;9.85;;;0.60;99.90;;;;;;4914772;29;20211;-69
2021/01/17 17:22:33;;;;;;;17.77;10.48;;;0.60;99.90;;;;;;4906177;29;20758;-69
2021/01/17 17:24:59;;;;;;;17.60;10.38;;;0.60;99.90;;;;;;4913972;29;20207;-68
2021/01/17 17:27:25;;;;;;;17.42;10.30;;;0.60;99.90;;;;;;4912775;29;20211;-69
2021/01/17 17:29:52;;;;;;;13.18;9.60;;;0.60;99.90;;;;;;4908963;29;20226;-68
2021/01/17 17:32:18;;;;;;;11.10;8.10;;;0.60;99.90;;;;;;4917124;29;20230;-68
2021/01/17 17:34:47;;;;;;;13.70;9.25;;;0.60;99.90;;;;;;4917836;29;20298;-68
2021/01/17 17:37:13;;;;;;;15.05;9.25;;;0.60;99.90;;;;;;4914282;29;20526;-69
2021/01/17 17:39:39;;;;;;;12.00;8.75;;;0.60;99.90;;;;;;4916990;29;20602;-70
2021/01/17 17:42:06;;;;;;;12.95;8.05;;;0.50;99.90;;;;;;4916336;29;20230;-68
2021/01/17 17:44:32;;;;;;;13.63;7.80;;;0.50;99.90;;;;;;4906656;29;20665;-68
2021/01/17 17:46:59;;;;;;;17.23;8.77;;;0.50;99.90;;;;;;4913985;29;20206;-69
2021/01/17 17:49:27;;;;;;;16.73;6.35;;;0.50;99.90;;;;;;4916596;29;20211;-69